createdAt,value
2022-11-17T00:01:18.808Z,17.42
2022-11-17T00:03:47.465Z,15.50
2022-11-17T00:06:14.547Z,14.85
2022-11-17T00:08:41.775Z,15.60
2022-11-17T00:11:08.649Z,17.70
2022-11-17T00:13:36.456Z,14.55
2022-11-17T00:16:06.508Z,17.70
2022-11-17T00:18:35.117Z,15.88
2022-11-17T00:21:04.434Z,17.70
2022-11-17T00:23:31.096Z,17.45
2022-11-17T00:26:01.893Z,18.33
2022-11-17T00:28:29.760Z,18.40
2022-11-17T00:30:56.413Z,17.63
2022-11-17T00:33:23.008Z,17.15
2022-11-17T00:35:51.732Z,21.88
2022-11-17T00:38:20.252Z,20.25
2022-11-17T00:40:47.648Z,17.13
2022-11-17T00:43:14.186Z,20.48
2022-11-17T00:45:41.022Z,17.27
2022-11-17T00:48:07.564Z,17.10
2022-11-17T00:50:34.103Z,19.35
2022-11-17T00:53:00.943Z,22.42
2022-11-17T00:55:27.707Z,21.25
2022-11-17T00:57:54.326Z,19.77
2022-11-17T01:00:20.931Z,20.92
2022-11-17T01:02:47.525Z,20.05
2022-11-17T01:05:14.120Z,16.95
2022-11-17T01:07:40.762Z,16.65
2022-11-17T01:10:07.796Z,18.17
2022-11-17T01:12:34.341Z,16.15
2022-11-17T01:15:01.312Z,15.85
2022-11-17T01:17:27.857Z,16.38
2022-11-17T01:19:54.473Z,20.92
2022-11-17T01:22:21.005Z,17.90
2022-11-17T01:24:47.525Z,17.48
2022-11-17T01:27:16.948Z,19.27
2022-11-17T01:29:44.256Z,19.75
2022-11-17T01:32:10.935Z,19.60
2022-11-17T01:34:37.492Z,12.98
2022-11-17T01:37:04.064Z,15.65
2022-11-17T01:39:31.573Z,15.90
2022-11-17T01:42:02.379Z,15.93
2022-11-17T01:44:46.844Z,22.08
2022-11-17T01:47:20.013Z,29.80
2022-11-17T01:49:48.750Z,31.25
2022-11-17T01:52:15.873Z,23.75
2022-11-17T01:54:44.186Z,21.83
2022-11-17T01:57:14.610Z,18.10
2022-11-17T01:59:46.228Z,21.40
2022-11-17T02:02:12.808Z,25.52
2022-11-17T02:05:09.013Z,29.63
2022-11-17T02:07:39.022Z,23.42
2022-11-17T02:10:07.096Z,21.42
2022-11-17T02:12:36.311Z,20.15
2022-11-17T02:15:04.364Z,18.63
2022-11-17T02:17:39.284Z,16.92
2022-11-17T02:20:15.123Z,14.75
2022-11-17T02:23:30.746Z,14.82
2022-11-17T02:26:22.001Z,18.58
2022-11-17T02:29:15.915Z,16.83
2022-11-17T02:31:51.065Z,30.60
2022-11-17T02:34:47.873Z,24.63
2022-11-17T02:37:42.278Z,21.88
2022-11-17T02:40:26.764Z,16.77
2022-11-17T02:43:20.334Z,19.60
2022-11-17T02:45:46.861Z,21.63
2022-11-17T02:48:28.246Z,21.65
2022-11-17T02:50:55.907Z,22.33
2022-11-17T02:53:27.726Z,20.17
2022-11-17T02:55:54.958Z,19.15
2022-11-17T02:58:21.579Z,17.38
2022-11-17T03:01:25.055Z,21.10
2022-11-17T03:04:06.996Z,16.95
2022-11-17T03:06:44.503Z,14.15
2022-11-17T03:09:27.758Z,17.92
2022-11-17T03:12:11.318Z,17.63
2022-11-17T03:15:12.728Z,18.08
2022-11-17T03:18:38.348Z,16.50
2022-11-17T03:21:42.767Z,18.08
2022-11-17T03:24:49.494Z,16.05
2022-11-17T03:27:36.155Z,15.80
2022-11-17T03:30:16.978Z,18.92
2022-11-17T03:33:04.499Z,22.95
2022-11-17T03:35:50.498Z,24.45
2022-11-17T03:38:26.914Z,22.50
2022-11-17T03:40:59.595Z,20.80
2022-11-17T03:43:35.934Z,32.33
2022-11-17T03:46:16.359Z,24.70
2022-11-17T03:49:20.913Z,23.60
2022-11-17T03:51:47.630Z,34.85
2022-11-17T03:54:26.236Z,33.88
2022-11-17T03:57:18.400Z,41.30
2022-11-17T04:00:05.337Z,35.65
2022-11-17T04:02:39.939Z,30.88
2022-11-17T04:07:58.835Z,37.67
2022-11-17T04:10:26.796Z,27.10
2022-11-17T04:13:10.324Z,25.80
2022-11-17T04:15:38.359Z,21.92
2022-11-17T04:18:15.439Z,21.25
2022-11-17T04:20:43.379Z,21.80
2022-11-17T04:23:16.143Z,26.80
2022-11-17T04:26:05.016Z,26.30
2022-11-17T04:28:57.748Z,27.10
2022-11-17T04:31:45.603Z,23.00
2022-11-17T04:34:26.435Z,26.88
2022-11-17T04:37:09.172Z,32.88
2022-11-17T04:39:37.984Z,37.65
2022-11-17T04:42:04.496Z,36.63
2022-11-17T04:44:34.120Z,34.53
2022-11-17T04:47:15.805Z,24.60
2022-11-17T04:49:43.260Z,21.42
2022-11-17T04:52:32.825Z,24.77
2022-11-17T04:55:10.110Z,26.00
2022-11-17T04:57:40.432Z,29.38
2022-11-17T05:00:17.267Z,30.20
2022-11-17T05:02:56.858Z,21.60
2022-11-17T05:05:25.370Z,22.85
2022-11-17T05:07:57.817Z,23.88
2022-11-17T05:10:24.310Z,23.23
2022-11-17T05:13:02.811Z,27.48
2022-11-17T05:15:44.966Z,21.33
2022-11-17T05:18:25.445Z,21.27
2022-11-17T05:20:56.729Z,23.30
2022-11-17T05:23:26.260Z,24.52
2022-11-17T05:26:01.021Z,18.60
2022-11-17T05:28:27.557Z,21.63
2022-11-17T05:30:58.908Z,22.38
2022-11-17T05:33:39.613Z,20.60
2022-11-17T05:36:06.839Z,21.98
2022-11-17T05:41:24.351Z,30.52
2022-11-17T05:43:51.306Z,33.53
2022-11-17T05:46:20.612Z,24.90
2022-11-17T05:48:54.833Z,28.77
2022-11-17T05:51:23.970Z,31.23
2022-11-17T05:53:58.439Z,33.00
2022-11-17T05:56:38.803Z,32.20
2022-11-17T05:59:12.523Z,29.35
2022-11-17T06:01:52.170Z,23.58
2022-11-17T06:07:33.619Z,28.25
2022-11-17T06:10:10.501Z,29.85
2022-11-17T06:12:43.370Z,27.35
2022-11-17T06:15:20.513Z,20.42
2022-11-17T06:18:27.853Z,22.48
2022-11-17T06:21:07.247Z,20.10
2022-11-17T06:23:42.306Z,20.15
2022-11-17T06:26:10.047Z,24.08
2022-11-17T06:28:39.932Z,38.65
2022-11-17T06:31:12.365Z,26.65
2022-11-17T06:33:48.313Z,26.48
2022-11-17T06:36:27.362Z,24.77
2022-11-17T06:38:59.803Z,25.13
2022-11-17T06:41:33.408Z,25.17
2022-11-17T06:44:12.670Z,29.67
2022-11-17T06:46:42.656Z,40.45
2022-11-17T06:49:13.780Z,32.25
2022-11-17T06:51:44.949Z,29.33
2022-11-17T06:54:19.489Z,31.92
2022-11-17T06:56:53.224Z,28.52
2022-11-17T06:59:20.209Z,29.25
2022-11-17T07:01:50.719Z,24.35
2022-11-17T07:04:19.981Z,28.25
2022-11-17T07:06:47.011Z,29.48
2022-11-17T07:09:27.659Z,33.22
2022-11-17T07:11:55.818Z,34.47
2022-11-17T07:14:33.595Z,40.33
2022-11-17T07:17:12.147Z,34.90
2022-11-17T07:19:38.826Z,38.70
2022-11-17T07:22:05.553Z,31.23
2022-11-17T07:24:38.076Z,37.42
2022-11-17T07:27:20.022Z,35.47
2022-11-17T07:30:09.583Z,38.63
2022-11-17T07:32:54.503Z,34.88
2022-11-17T07:35:38.591Z,29.55
2022-11-17T07:38:30.965Z,29.65
2022-11-17T07:41:17.337Z,27.95
2022-11-17T07:44:04.002Z,29.98
2022-11-17T07:46:50.466Z,30.10
2022-11-17T07:49:27.439Z,32.63
2022-11-17T07:52:09.235Z,37.85
2022-11-17T07:54:48.876Z,37.95
2022-11-17T07:57:28.538Z,35.17
2022-11-17T08:00:08.684Z,32.75
2022-11-17T08:02:48.156Z,29.52
2022-11-17T08:05:29.208Z,29.45
2022-11-17T08:08:07.797Z,35.88
2022-11-17T08:10:50.464Z,32.45
2022-11-17T08:13:18.082Z,31.98
2022-11-17T08:15:55.094Z,37.83
2022-11-17T08:18:38.879Z,29.48
2022-11-17T08:21:13.771Z,33.95
2022-11-17T08:23:57.806Z,25.10
2022-11-17T08:26:37.664Z,26.60
2022-11-17T08:29:11.891Z,26.20
2022-11-17T08:31:54.062Z,30.13
2022-11-17T08:34:26.212Z,29.45
2022-11-17T08:37:03.623Z,25.08
2022-11-17T08:39:44.094Z,22.13
2022-11-17T08:42:11.626Z,22.25
2022-11-17T08:44:42.574Z,23.90
2022-11-17T08:47:23.079Z,24.27
2022-11-17T08:49:55.333Z,23.85
2022-11-17T08:52:33.044Z,22.30
2022-11-17T08:55:04.096Z,22.95
2022-11-17T08:57:50.600Z,21.02
2022-11-17T09:00:17.739Z,24.00
2022-11-17T09:02:44.357Z,23.10
2022-11-17T09:05:21.771Z,25.00
2022-11-17T09:08:29.672Z,23.25
2022-11-17T09:10:58.273Z,21.55
2022-11-17T09:13:38.154Z,25.48
2022-11-17T09:16:15.446Z,22.73
2022-11-17T09:18:51.271Z,24.42
2022-11-17T09:21:33.124Z,23.27
2022-11-17T09:24:10.449Z,24.45
2022-11-17T09:26:45.453Z,26.85
2022-11-17T09:29:23.164Z,29.05
2022-11-17T09:31:53.962Z,25.98
2022-11-17T09:34:37.418Z,21.48
2022-11-17T09:37:13.244Z,25.30
2022-11-17T09:39:49.622Z,25.67
2022-11-17T09:42:27.713Z,26.35
2022-11-17T09:45:09.549Z,27.02
2022-11-17T09:47:43.828Z,30.77
2022-11-17T09:50:27.573Z,29.50
2022-11-17T09:53:24.507Z,22.07
2022-11-17T09:56:05.566Z,21.85
2022-11-17T09:59:03.071Z,25.92
2022-11-17T10:01:32.899Z,24.90
2022-11-17T10:03:59.804Z,27.88
2022-11-17T10:06:28.604Z,23.80
2022-11-17T10:09:31.725Z,27.23
2022-11-17T10:12:25.270Z,26.27
2022-11-17T10:15:08.293Z,23.95
2022-11-17T10:17:52.879Z,25.35
2022-11-17T10:20:44.300Z,24.20
2022-11-17T10:23:18.070Z,26.10
2022-11-17T10:26:14.223Z,25.38
2022-11-17T10:29:08.135Z,24.15
2022-11-17T10:31:57.007Z,25.58
2022-11-17T10:34:52.282Z,22.27
2022-11-17T10:37:39.618Z,20.60
2022-11-17T10:40:36.323Z,21.50
2022-11-17T10:43:28.894Z,25.15
2022-11-17T10:46:36.701Z,25.48
2022-11-17T10:49:36.992Z,21.15
2022-11-17T10:52:42.551Z,21.20
2022-11-17T10:55:44.723Z,22.63
2022-11-17T10:58:39.679Z,20.25
2022-11-17T11:04:07.222Z,19.95
2022-11-17T11:06:51.812Z,25.55
2022-11-17T11:09:32.766Z,26.38
2022-11-17T11:12:18.181Z,21.05
2022-11-17T11:18:05.569Z,26.10
2022-11-17T11:20:53.299Z,22.58
2022-11-17T11:23:41.062Z,21.05
2022-11-17T11:26:43.539Z,22.85
2022-11-17T11:29:30.830Z,21.08
2022-11-17T11:32:22.070Z,25.00
2022-11-17T11:35:03.680Z,23.50
2022-11-17T11:37:40.103Z,24.27
2022-11-17T11:40:26.830Z,25.98
2022-11-17T11:43:05.068Z,22.73
2022-11-17T11:46:18.874Z,22.02
2022-11-17T11:48:47.794Z,24.48
2022-11-17T11:51:16.702Z,27.95
2022-11-17T11:53:52.247Z,24.23
2022-11-17T11:56:28.902Z,21.05
2022-11-17T11:59:20.493Z,25.23
2022-11-17T12:02:02.878Z,22.17
2022-11-17T12:04:45.443Z,26.17
2022-11-17T12:07:30.754Z,27.77
2022-11-17T12:10:18.830Z,23.83
2022-11-17T12:12:46.802Z,26.20
2022-11-17T12:15:19.308Z,24.83
2022-11-17T12:18:05.793Z,23.83
2022-11-17T12:20:38.343Z,22.50
2022-11-17T12:23:14.875Z,24.60
2022-11-17T12:25:53.907Z,22.20
2022-11-17T12:28:38.077Z,23.17
2022-11-17T12:31:32.366Z,22.30
2022-11-17T12:34:01.703Z,25.17
2022-11-17T12:36:31.272Z,24.52
2022-11-17T12:39:02.408Z,21.33
2022-11-17T12:41:47.571Z,23.60
2022-11-17T12:44:34.016Z,19.60
2022-11-17T12:47:16.045Z,23.08
2022-11-17T12:50:11.798Z,22.92
2022-11-17T12:52:57.883Z,23.48
2022-11-17T12:55:30.337Z,27.02
2022-11-17T12:58:10.480Z,27.52
2022-11-17T13:00:52.234Z,25.95
2022-11-17T13:03:58.728Z,26.95
2022-11-17T13:06:35.427Z,28.83
2022-11-17T13:09:07.819Z,32.90
2022-11-17T13:11:35.188Z,29.42
2022-11-17T13:14:09.341Z,31.60
2022-11-17T13:16:37.813Z,29.15
2022-11-17T13:19:27.329Z,28.45
2022-11-17T13:22:06.279Z,30.17
2022-11-17T13:24:37.543Z,30.20
2022-11-17T13:27:06.719Z,28.67
2022-11-17T13:29:34.182Z,34.85
2022-11-17T13:32:19.951Z,31.27
2022-11-17T13:34:55.194Z,27.20
2022-11-17T13:37:25.949Z,29.70
2022-11-17T13:40:17.388Z,31.77
2022-11-17T13:42:44.096Z,31.85
2022-11-17T13:45:15.227Z,34.10
2022-11-17T13:47:49.513Z,34.13
2022-11-17T13:50:31.430Z,39.53
2022-11-17T13:53:18.274Z,37.75
2022-11-17T13:55:53.285Z,36.17
2022-11-17T13:58:39.361Z,47.47
2022-11-17T14:01:06.031Z,49.00
2022-11-17T14:03:40.352Z,50.50
2022-11-17T14:06:12.952Z,52.22
2022-11-17T14:08:41.347Z,46.30
2022-11-17T14:11:10.658Z,53.05
2022-11-17T14:13:40.099Z,52.08
2022-11-17T14:16:21.092Z,54.22
2022-11-17T14:19:17.077Z,50.65
2022-11-17T14:22:01.674Z,50.47
2022-11-17T14:24:28.761Z,54.88
2022-11-17T14:26:56.359Z,50.40
2022-11-17T14:29:23.092Z,47.53
2022-11-17T14:31:49.738Z,49.35
2022-11-17T14:34:16.973Z,53.97
2022-11-17T14:36:44.249Z,55.35
2022-11-17T14:39:17.672Z,50.42
2022-11-17T14:41:51.283Z,55.20
2022-11-17T14:44:18.022Z,61.75
2022-11-17T14:46:47.716Z,61.33
2022-11-17T14:49:18.605Z,65.25
2022-11-17T14:51:51.104Z,70.82
2022-11-17T14:54:22.089Z,70.00
2022-11-17T14:56:49.030Z,82.32
2022-11-17T14:59:17.271Z,98.38
2022-11-17T15:01:44.157Z,84.85
2022-11-17T15:07:04.898Z,88.00
2022-11-17T15:09:31.725Z,94.68
2022-11-17T15:11:58.366Z,97.25
2022-11-17T15:14:25.050Z,95.70
2022-11-17T15:16:58.091Z,94.13
2022-11-17T15:19:24.772Z,86.95
2022-11-17T15:22:07.658Z,80.60
2022-11-17T15:24:37.114Z,86.20
2022-11-17T15:27:12.970Z,86.85
2022-11-17T15:29:42.437Z,80.13
2022-11-17T15:32:37.024Z,78.72
2022-11-17T15:35:29.068Z,74.93
2022-11-17T15:38:25.089Z,80.70
2022-11-17T15:40:57.792Z,77.38
2022-11-17T15:43:29.207Z,79.97
2022-11-17T15:46:14.330Z,76.78
2022-11-17T15:51:18.533Z,74.80
2022-11-17T15:53:51.466Z,74.00
2022-11-17T15:56:29.055Z,77.80
2022-11-17T15:58:58.792Z,67.68
2022-11-17T16:01:34.168Z,76.88
2022-11-17T16:04:22.102Z,75.28
2022-11-17T16:06:48.784Z,67.65
2022-11-17T16:09:52.938Z,71.40
2022-11-17T16:12:42.682Z,72.13
2022-11-17T16:15:11.284Z,67.05
2022-11-17T16:20:43.796Z,71.88
2022-11-17T16:26:40.382Z,56.67
2022-11-17T16:29:20.516Z,69.28
2022-11-17T16:31:47.712Z,57.80
2022-11-17T16:34:21.853Z,71.50
2022-11-17T16:36:50.829Z,60.13
2022-11-17T16:39:41.425Z,58.92
2022-11-17T16:45:16.309Z,62.60
2022-11-17T16:47:57.825Z,85.07
2022-11-17T16:50:24.632Z,71.10
2022-11-17T16:52:55.725Z,60.72
2022-11-17T16:55:27.114Z,53.25
2022-11-17T16:57:55.692Z,61.97
2022-11-17T17:00:53.570Z,56.30
2022-11-17T17:04:41.267Z,54.88
2022-11-17T17:07:15.398Z,61.40
2022-11-17T17:15:29.015Z,57.90
2022-11-17T17:18:24.828Z,70.43
2022-11-17T17:24:10.349Z,66.53
2022-11-17T17:29:34.831Z,54.88
2022-11-17T17:32:27.350Z,65.75
2022-11-17T17:35:07.110Z,69.57
2022-11-17T17:37:41.805Z,64.90
2022-11-17T17:40:21.310Z,59.17
2022-11-17T17:42:52.034Z,59.92
2022-11-17T17:45:44.658Z,58.72
2022-11-17T17:48:15.805Z,65.15
2022-11-17T17:50:42.472Z,71.82
2022-11-17T17:53:11.265Z,69.95
2022-11-17T17:55:43.851Z,65.70
2022-11-17T17:58:10.523Z,66.68
2022-11-17T18:00:37.147Z,63.70
2022-11-17T18:03:04.148Z,65.40
2022-11-17T18:05:30.976Z,72.75
2022-11-17T18:08:00.721Z,67.68
2022-11-17T18:10:27.776Z,70.85
2022-11-17T18:12:54.523Z,69.18
2022-11-17T18:15:21.260Z,85.53
2022-11-17T18:17:48.928Z,76.13
2022-11-17T18:20:33.235Z,94.93
2022-11-17T18:26:35.696Z,64.80
2022-11-17T18:33:24.300Z,83.10
2022-11-17T18:36:11.097Z,74.90
2022-11-17T18:41:42.511Z,79.75
2022-11-17T18:47:02.546Z,69.60
2022-11-17T18:51:18.852Z,79.80
2022-11-17T18:52:58.399Z,89.20
2022-11-17T18:55:43.378Z,85.88
2022-11-17T18:58:16.558Z,93.68
2022-11-17T19:00:53.632Z,91.55
2022-11-17T19:03:26.634Z,76.90
2022-11-17T19:06:07.396Z,96.95
2022-11-17T19:08:50.261Z,98.18
2022-11-17T19:11:33.593Z,100.47
2022-11-17T19:14:13.682Z,91.10
2022-11-17T19:22:26.379Z,72.38
2022-11-17T19:24:56.113Z,63.10
2022-11-17T19:31:07.160Z,76.97
2022-11-17T19:33:55.559Z,65.03
2022-11-17T19:39:15.752Z,66.15
2022-11-17T19:42:08.046Z,78.80
2022-11-17T19:45:10.289Z,88.07
2022-11-17T19:47:51.260Z,82.68
2022-11-17T19:54:17.126Z,76.15
2022-11-17T19:57:34.290Z,69.95
2022-11-17T20:00:22.747Z,79.50
2022-11-17T20:03:10.024Z,76.05
2022-11-17T20:06:27.008Z,72.72
2022-11-17T20:15:33.915Z,78.45
2022-11-17T20:18:09.358Z,81.30
2022-11-17T20:23:44.801Z,89.45
2022-11-17T20:26:34.607Z,78.13
2022-11-17T20:29:44.459Z,71.20
2022-11-17T20:32:25.277Z,78.38
2022-11-17T20:35:24.731Z,79.50
2022-11-17T20:37:52.366Z,90.32
2022-11-17T20:40:41.909Z,75.78
2022-11-17T20:50:17.681Z,73.33
2022-11-17T20:53:38.695Z,94.15
2022-11-17T20:56:22.337Z,76.72
2022-11-17T20:58:55.328Z,77.70
2022-11-17T21:01:27.450Z,78.40
2022-11-17T21:04:15.766Z,105.82
2022-11-17T21:06:42.535Z,81.05
2022-11-17T21:09:10.779Z,74.78
2022-11-17T21:12:44.944Z,88.28
2022-11-17T21:15:08.444Z,75.18
2022-11-17T21:17:47.485Z,80.00
2022-11-17T21:20:17.623Z,76.38
2022-11-17T21:22:44.304Z,93.28
2022-11-17T21:25:12.648Z,83.88
2022-11-17T21:27:51.945Z,101.10
2022-11-17T21:30:32.463Z,76.25
2022-11-17T21:33:19.365Z,85.53
2022-11-17T21:35:49.372Z,86.90
2022-11-17T21:38:31.481Z,88.22
2022-11-17T21:41:03.239Z,66.22
2022-11-17T21:43:30.801Z,96.75
2022-11-17T21:46:03.072Z,75.28
2022-11-17T21:48:34.649Z,76.70
2022-11-17T21:51:14.466Z,68.95
2022-11-17T21:53:52.520Z,63.42
2022-11-17T21:56:20.250Z,59.78
2022-11-17T21:58:46.984Z,103.57
2022-11-17T22:01:16.120Z,100.15
2022-11-17T22:03:43.829Z,104.25
2022-11-17T22:06:32.006Z,109.90
2022-11-17T22:09:02.396Z,120.32
2022-11-17T22:11:31.919Z,101.63
2022-11-17T22:13:58.630Z,110.63
2022-11-17T22:16:33.489Z,117.88
2022-11-17T22:19:06.093Z,131.48
2022-11-17T22:21:41.625Z,87.03
2022-11-17T22:24:10.744Z,109.38
2022-11-17T22:26:39.186Z,93.28
2022-11-17T22:29:08.190Z,113.57
2022-11-17T22:31:44.734Z,128.68
2022-11-17T22:34:25.351Z,99.30
2022-11-17T22:36:58.510Z,113.97
2022-11-17T22:39:31.463Z,95.88
2022-11-17T22:42:14.285Z,102.60
2022-11-17T22:44:57.565Z,102.72
2022-11-17T22:47:41.930Z,98.88
2022-11-17T22:50:30.792Z,88.32
2022-11-17T22:53:14.000Z,76.10
2022-11-17T22:56:03.485Z,99.57
2022-11-17T22:58:59.332Z,107.38
2022-11-17T23:01:29.698Z,85.03
2022-11-17T23:04:08.242Z,92.30
2022-11-17T23:06:55.461Z,76.68
2022-11-17T23:09:37.282Z,86.25
2022-11-17T23:12:19.063Z,67.05
2022-11-17T23:14:46.699Z,68.63
2022-11-17T23:17:28.598Z,59.92
2022-11-17T23:19:57.133Z,54.72
2022-11-17T23:22:40.120Z,43.17
2022-11-17T23:25:20.118Z,44.53
2022-11-17T23:27:57.275Z,41.40
2022-11-17T23:30:38.326Z,36.33
2022-11-17T23:33:13.089Z,37.75
2022-11-17T23:36:06.518Z,32.00
2022-11-17T23:38:42.184Z,35.42
2022-11-17T23:41:24.471Z,34.58
2022-11-17T23:44:09.400Z,36.50
2022-11-17T23:47:00.843Z,38.10
2022-11-17T23:49:39.109Z,42.78
2022-11-17T23:52:14.614Z,43.90
2022-11-17T23:54:50.667Z,42.38
2022-11-17T23:57:30.834Z,36.53
